createdAt,value
2022-09-16T00:00:34.877Z,13.90
2022-09-16T00:03:02.782Z,14.00
2022-09-16T00:05:30.535Z,14.00
2022-09-16T00:07:58.187Z,14.00
2022-09-16T00:10:26.039Z,14.10
2022-09-16T00:12:53.704Z,14.10
2022-09-16T00:15:21.435Z,14.10
2022-09-16T00:17:49.370Z,14.10
2022-09-16T00:20:17.031Z,14.10
2022-09-16T00:22:44.720Z,14.20
2022-09-16T00:25:12.443Z,14.30
2022-09-16T00:27:41.305Z,14.20
2022-09-16T00:30:18.528Z,14.20
2022-09-16T00:32:46.205Z,14.20
2022-09-16T00:35:18.059Z,14.20
2022-09-16T00:37:45.944Z,14.20
2022-09-16T00:40:13.629Z,14.20
2022-09-16T00:42:44.244Z,14.30
2022-09-16T00:45:18.801Z,14.30
2022-09-16T00:47:53.955Z,14.30
2022-09-16T00:50:48.359Z,14.30
2022-09-16T00:53:29.738Z,14.30
2022-09-16T00:56:00.574Z,14.20
2022-09-16T00:58:48.743Z,14.20
2022-09-16T01:01:16.769Z,14.20
2022-09-16T01:03:54.592Z,14.20
2022-09-16T01:06:24.565Z,14.20
2022-09-16T01:08:52.810Z,14.20
2022-09-16T01:11:20.636Z,14.20
2022-09-16T01:13:54.207Z,14.20
2022-09-16T01:16:39.012Z,14.20
2022-09-16T01:19:26.483Z,14.20
2022-09-16T01:22:37.107Z,14.10
2022-09-16T01:25:31.340Z,14.20
2022-09-16T01:28:21.713Z,14.20
2022-09-16T01:31:00.334Z,14.10
2022-09-16T01:33:58.599Z,14.10
2022-09-16T01:37:09.347Z,14.10
2022-09-16T01:40:15.279Z,14.10
2022-09-16T01:42:48.889Z,14.10
2022-09-16T01:45:42.324Z,14.10
2022-09-16T01:48:17.417Z,14.10
2022-09-16T01:51:00.768Z,14.10
2022-09-16T01:53:53.111Z,14.00
2022-09-16T01:56:49.011Z,14.00
2022-09-16T01:59:26.704Z,13.90
2022-09-16T02:02:22.149Z,13.80
2022-09-16T02:04:57.886Z,13.70
2022-09-16T02:07:31.395Z,13.70
2022-09-16T02:10:06.839Z,13.60
2022-09-16T02:12:40.648Z,13.60
2022-09-16T02:15:12.451Z,13.50
2022-09-16T02:17:47.734Z,13.50
2022-09-16T02:20:19.974Z,13.40
2022-09-16T02:22:59.258Z,13.30
2022-09-16T02:25:31.516Z,13.20
2022-09-16T02:28:03.472Z,13.20
2022-09-16T02:30:32.452Z,13.20
2022-09-16T02:33:06.481Z,13.10
2022-09-16T02:35:41.628Z,13.10
2022-09-16T02:38:22.621Z,13.10
2022-09-16T02:41:03.695Z,13.10
2022-09-16T02:43:42.143Z,13.10
2022-09-16T02:46:19.691Z,13.10
2022-09-16T02:49:14.670Z,13.10
2022-09-16T02:51:51.722Z,13.00
2022-09-16T02:54:22.600Z,13.00
2022-09-16T02:56:50.327Z,12.90
2022-09-16T02:59:18.419Z,12.90
2022-09-16T03:01:47.202Z,12.80
2022-09-16T03:04:17.684Z,12.70
2022-09-16T03:06:46.203Z,12.70
2022-09-16T03:09:15.458Z,12.70
2022-09-16T03:12:04.738Z,12.60
2022-09-16T03:14:57.193Z,12.60
2022-09-16T03:17:57.201Z,12.60
2022-09-16T03:20:52.815Z,12.50
2022-09-16T03:23:28.162Z,12.60
2022-09-16T03:26:14.091Z,12.60
2022-09-16T03:28:50.732Z,12.60
2022-09-16T03:31:33.092Z,12.50
2022-09-16T03:34:13.893Z,12.60
2022-09-16T03:36:44.960Z,12.50
2022-09-16T03:39:13.306Z,12.50
2022-09-16T03:41:42.877Z,12.60
2022-09-16T03:44:10.548Z,12.50
2022-09-16T03:46:39.480Z,12.50
2022-09-16T03:49:07.146Z,12.50
2022-09-16T03:51:34.787Z,12.60
2022-09-16T03:54:04.022Z,12.60
2022-09-16T03:56:31.723Z,12.60
2022-09-16T03:59:01.487Z,12.70
2022-09-16T04:01:30.445Z,12.70
2022-09-16T04:03:58.189Z,12.80
2022-09-16T04:06:25.999Z,12.80
2022-09-16T04:08:53.931Z,12.80
2022-09-16T04:11:24.761Z,12.80
2022-09-16T04:13:52.429Z,12.80
2022-09-16T04:16:22.091Z,12.80
2022-09-16T04:18:50.193Z,12.80
2022-09-16T04:21:19.202Z,12.90
2022-09-16T04:23:48.972Z,12.80
2022-09-16T04:26:19.743Z,12.80
2022-09-16T04:28:48.084Z,12.80
2022-09-16T04:31:18.588Z,12.80
2022-09-16T04:33:46.224Z,12.80
2022-09-16T04:36:16.762Z,12.80
2022-09-16T04:38:48.042Z,12.80
2022-09-16T04:41:29.427Z,12.80
2022-09-16T04:43:58.966Z,12.70
2022-09-16T04:46:28.488Z,12.70
2022-09-16T04:48:57.332Z,12.70
2022-09-16T04:51:29.116Z,12.70
2022-09-16T04:53:58.089Z,12.70
2022-09-16T04:56:31.876Z,12.70
2022-09-16T04:59:02.730Z,12.70
2022-09-16T05:01:37.580Z,12.70
2022-09-16T05:04:07.517Z,12.70
2022-09-16T05:06:38.585Z,12.60
2022-09-16T05:09:06.888Z,12.60
2022-09-16T05:11:37.925Z,12.60
2022-09-16T05:14:09.236Z,12.50
2022-09-16T05:16:36.911Z,12.50
2022-09-16T05:19:16.167Z,12.50
2022-09-16T05:21:43.862Z,12.50
2022-09-16T05:24:13.474Z,12.50
2022-09-16T05:26:50.427Z,12.50
2022-09-16T05:29:18.105Z,12.40
2022-09-16T05:31:47.795Z,12.40
2022-09-16T05:34:17.603Z,12.40
2022-09-16T05:36:48.049Z,12.30
2022-09-16T05:39:25.892Z,12.30
2022-09-16T05:41:59.816Z,12.30
2022-09-16T05:44:38.227Z,12.30
2022-09-16T05:47:05.992Z,12.20
2022-09-16T05:49:33.915Z,12.20
2022-09-16T05:52:03.980Z,12.20
2022-09-16T05:54:31.789Z,12.20
2022-09-16T05:57:03.284Z,12.20
2022-09-16T05:59:33.865Z,12.20
2022-09-16T06:02:05.870Z,12.70
2022-09-16T06:04:38.821Z,12.20
2022-09-16T06:07:07.344Z,12.20
2022-09-16T06:09:34.964Z,12.20
2022-09-16T06:12:06.253Z,12.20
2022-09-16T06:14:34.081Z,12.30
2022-09-16T06:17:08.197Z,12.30
2022-09-16T06:19:35.893Z,12.50
2022-09-16T06:22:03.535Z,12.40
2022-09-16T06:24:37.348Z,12.40
2022-09-16T06:27:06.359Z,12.40
2022-09-16T06:29:34.487Z,12.40
2022-09-16T06:32:03.254Z,12.40
2022-09-16T06:34:31.062Z,12.40
2022-09-16T06:37:06.305Z,12.40
2022-09-16T06:39:34.025Z,12.40
2022-09-16T06:42:01.961Z,12.40
2022-09-16T06:44:41.801Z,12.40
2022-09-16T06:47:12.443Z,12.40
2022-09-16T06:49:42.023Z,12.40
2022-09-16T06:52:11.824Z,12.50
2022-09-16T06:54:39.521Z,12.50
2022-09-16T06:57:11.954Z,12.60
2022-09-16T06:59:40.636Z,12.50
2022-09-16T07:02:12.826Z,12.70
2022-09-16T07:04:40.990Z,12.50
2022-09-16T07:07:11.145Z,12.90
2022-09-16T07:09:40.506Z,13.00
2022-09-16T07:12:11.074Z,13.20
2022-09-16T07:14:38.942Z,13.50
2022-09-16T07:17:09.685Z,13.80
2022-09-16T07:19:39.091Z,14.40
2022-09-16T07:22:08.494Z,15.00
2022-09-16T07:24:36.740Z,15.60
2022-09-16T07:27:06.926Z,16.10
2022-09-16T07:29:34.706Z,16.40
2022-09-16T07:32:05.637Z,16.60
2022-09-16T07:34:33.713Z,16.70
2022-09-16T07:37:01.262Z,16.70
2022-09-16T07:39:29.110Z,16.60
2022-09-16T07:41:57.313Z,16.60
2022-09-16T07:44:26.281Z,16.60
2022-09-16T07:46:53.924Z,16.70
2022-09-16T07:49:22.578Z,16.90
2022-09-16T07:51:50.382Z,17.00
2022-09-16T07:54:20.190Z,17.00
2022-09-16T07:56:48.271Z,17.00
2022-09-16T07:59:21.431Z,16.90
2022-09-16T08:01:52.422Z,16.90
2022-09-16T08:04:20.759Z,16.80
2022-09-16T08:06:53.468Z,16.70
2022-09-16T08:09:41.078Z,16.60
2022-09-16T08:12:11.236Z,16.60
2022-09-16T08:14:40.041Z,16.50
2022-09-16T08:17:19.203Z,16.50
2022-09-16T08:19:46.808Z,16.50
2022-09-16T08:22:17.753Z,16.60
2022-09-16T08:24:45.655Z,16.70
2022-09-16T08:27:16.618Z,16.80
2022-09-16T08:29:44.174Z,16.90
2022-09-16T08:32:15.498Z,17.00
2022-09-16T08:34:46.042Z,17.00
2022-09-16T08:37:15.168Z,17.10
2022-09-16T08:39:44.373Z,17.10
2022-09-16T08:42:50.459Z,17.00
2022-09-16T08:45:32.219Z,17.20
2022-09-16T08:48:14.168Z,17.30
2022-09-16T08:50:47.232Z,17.40
2022-09-16T08:53:27.746Z,17.30
2022-09-16T08:55:57.566Z,17.30
2022-09-16T08:58:38.276Z,17.50
2022-09-16T09:01:34.146Z,17.90
2022-09-16T09:04:03.034Z,18.40
2022-09-16T09:07:00.656Z,19.10
2022-09-16T09:09:43.115Z,19.80
2022-09-16T09:12:33.898Z,20.50
2022-09-16T09:15:16.837Z,21.10
2022-09-16T09:18:15.868Z,21.60
2022-09-16T09:21:09.156Z,21.90
2022-09-16T09:23:45.025Z,22.10
2022-09-16T09:26:52.711Z,22.30
2022-09-16T09:29:29.896Z,22.70
2022-09-16T09:32:49.103Z,22.80
2022-09-16T09:35:33.457Z,22.70
2022-09-16T09:38:19.536Z,22.40
2022-09-16T09:40:59.399Z,21.70
2022-09-16T09:43:56.651Z,21.20
2022-09-16T09:46:35.588Z,20.70
2022-09-16T09:49:25.036Z,20.40
2022-09-16T09:52:02.268Z,20.20
2022-09-16T09:54:35.202Z,20.10
2022-09-16T09:57:47.188Z,20.00
2022-09-16T10:00:18.856Z,20.00
2022-09-16T10:02:52.937Z,20.40
2022-09-16T10:05:32.709Z,20.70
2022-09-16T10:08:24.057Z,21.10
2022-09-16T10:11:05.716Z,21.60
2022-09-16T10:13:33.665Z,21.90
2022-09-16T10:16:21.274Z,22.20
2022-09-16T10:19:25.843Z,22.50
2022-09-16T10:22:17.916Z,22.90
2022-09-16T10:24:59.513Z,23.00
2022-09-16T10:27:40.774Z,22.80
2022-09-16T10:30:19.921Z,22.90
2022-09-16T10:32:55.684Z,23.00
2022-09-16T10:35:38.664Z,23.30
2022-09-16T10:38:17.066Z,23.70
2022-09-16T10:41:32.673Z,23.90
2022-09-16T10:44:04.075Z,23.80
2022-09-16T10:46:55.281Z,23.70
2022-09-16T10:50:07.589Z,24.00
2022-09-16T10:52:46.188Z,24.80
2022-09-16T10:55:48.451Z,25.50
2022-09-16T10:58:20.179Z,25.80
2022-09-16T11:01:00.840Z,26.00
2022-09-16T11:04:06.406Z,26.20
2022-09-16T11:07:07.792Z,26.00
2022-09-16T11:10:05.138Z,26.30
2022-09-16T11:13:00.554Z,26.50
2022-09-16T11:15:37.407Z,26.00
2022-09-16T11:18:16.191Z,25.00
2022-09-16T11:21:27.936Z,24.00
2022-09-16T11:24:17.510Z,23.30
2022-09-16T11:27:22.919Z,23.40
2022-09-16T11:30:04.693Z,23.60
2022-09-16T11:33:08.229Z,23.60
2022-09-16T11:36:07.639Z,23.30
2022-09-16T11:39:12.167Z,22.50
2022-09-16T11:42:01.667Z,22.20
2022-09-16T11:44:40.338Z,22.70
2022-09-16T11:47:22.303Z,23.30
2022-09-16T11:50:41.111Z,23.40
2022-09-16T11:54:00.307Z,23.00
2022-09-16T11:56:59.983Z,22.30
2022-09-16T11:59:41.313Z,21.60
2022-09-16T12:02:29.655Z,21.40
2022-09-16T12:05:20.212Z,21.50
2022-09-16T12:08:13.092Z,21.50
2022-09-16T12:11:15.123Z,21.20
2022-09-16T12:14:07.368Z,20.80
2022-09-16T12:16:42.763Z,20.60
2022-09-16T12:19:25.579Z,20.80
2022-09-16T12:22:00.468Z,21.20
2022-09-16T12:24:45.213Z,21.60
2022-09-16T12:27:25.833Z,21.70
2022-09-16T12:30:03.120Z,21.90
2022-09-16T12:32:55.557Z,22.00
2022-09-16T12:35:34.655Z,21.60
2022-09-16T12:38:03.392Z,21.00
2022-09-16T12:40:50.421Z,20.50
2022-09-16T12:43:40.394Z,20.30
2022-09-16T12:46:32.092Z,20.80
2022-09-16T12:49:45.168Z,21.60
2022-09-16T12:52:27.941Z,22.10
2022-09-16T12:55:25.246Z,22.00
2022-09-16T12:58:40.767Z,21.60
2022-09-16T13:01:25.982Z,21.00
2022-09-16T13:04:18.699Z,20.50
2022-09-16T13:06:52.625Z,20.40
2022-09-16T13:09:38.734Z,20.40
2022-09-16T13:15:42.736Z,20.00
2022-09-16T13:18:21.208Z,19.90
2022-09-16T13:20:54.085Z,19.80
2022-09-16T13:23:32.724Z,19.80
2022-09-16T13:26:09.027Z,19.80
2022-09-16T13:28:54.202Z,19.70
2022-09-16T13:31:34.159Z,19.60
2022-09-16T13:37:04.177Z,19.50
2022-09-16T13:39:38.892Z,19.50
2022-09-16T13:42:23.641Z,19.40
2022-09-16T13:44:51.567Z,19.30
2022-09-16T13:47:32.121Z,19.20
2022-09-16T13:50:17.487Z,19.00
2022-09-16T13:52:45.235Z,18.80
2022-09-16T13:55:35.833Z,18.70
2022-09-16T13:59:10.227Z,18.60
2022-09-16T14:01:59.014Z,18.60
2022-09-16T14:05:19.334Z,18.60
2022-09-16T14:08:21.448Z,18.60
2022-09-16T14:10:59.355Z,18.50
2022-09-16T14:14:06.947Z,18.40
2022-09-16T14:16:43.343Z,18.40
2022-09-16T14:19:23.809Z,18.50
2022-09-16T14:22:04.080Z,18.60
2022-09-16T14:24:46.165Z,18.80
2022-09-16T14:27:21.478Z,18.90
2022-09-16T14:30:02.787Z,19.00
2022-09-16T14:32:45.720Z,19.10
2022-09-16T14:35:36.226Z,19.00
2022-09-16T14:38:14.192Z,18.90
2022-09-16T14:40:58.111Z,18.80
2022-09-16T14:43:26.931Z,18.90
2022-09-16T14:48:40.860Z,18.80
2022-09-16T14:51:30.484Z,18.60
2022-09-16T14:54:18.661Z,18.50
2022-09-16T14:57:06.567Z,18.30
2022-09-16T14:59:48.594Z,18.20
2022-09-16T15:06:08.936Z,17.90
2022-09-16T15:09:04.986Z,17.80
2022-09-16T15:11:48.473Z,17.80
2022-09-16T15:14:18.734Z,17.70
2022-09-16T15:17:20.434Z,17.60
2022-09-16T15:20:05.921Z,17.50
2022-09-16T15:22:48.827Z,17.40
2022-09-16T15:25:24.988Z,17.30
2022-09-16T15:27:55.188Z,17.30
2022-09-16T15:30:44.802Z,17.30
2022-09-16T15:34:05.730Z,17.30
2022-09-16T15:36:38.040Z,17.20
2022-09-16T15:39:25.305Z,17.10
2022-09-16T15:42:26.709Z,17.00
2022-09-16T15:45:14.055Z,17.00
2022-09-16T15:48:00.135Z,16.70
2022-09-16T15:50:53.124Z,16.90
2022-09-16T15:53:43.004Z,16.80
2022-09-16T15:56:58.254Z,16.80
2022-09-16T15:59:57.956Z,16.70
2022-09-16T16:02:56.861Z,16.60
2022-09-16T16:05:33.119Z,16.20
2022-09-16T16:08:50.478Z,16.60
2022-09-16T16:11:26.506Z,16.60
2022-09-16T16:14:01.777Z,16.60
2022-09-16T16:18:22.673Z,16.60
2022-09-16T16:21:15.009Z,16.60
2022-09-16T16:23:46.361Z,16.60
2022-09-16T16:29:15.841Z,16.50
2022-09-16T16:32:06.596Z,16.40
2022-09-16T16:35:06.297Z,16.30
2022-09-16T16:37:52.241Z,16.40
2022-09-16T16:40:24.501Z,16.30
2022-09-16T16:42:54.984Z,16.30
2022-09-16T16:45:23.261Z,16.30
2022-09-16T16:47:51.070Z,16.40
2022-09-16T16:50:30.524Z,16.40
2022-09-16T16:53:01.293Z,16.40
2022-09-16T16:55:56.193Z,16.40
2022-09-16T16:58:40.038Z,16.40
2022-09-16T17:01:18.507Z,16.30
2022-09-16T17:04:01.853Z,16.20
2022-09-16T17:06:37.563Z,16.10
2022-09-16T17:09:40.702Z,15.90
2022-09-16T17:15:10.771Z,15.70
2022-09-16T17:17:49.031Z,15.60
2022-09-16T17:20:17.794Z,15.50
2022-09-16T17:23:23.362Z,15.40
2022-09-16T17:26:05.487Z,15.30
2022-09-16T17:28:41.267Z,15.20
2022-09-16T17:31:45.460Z,15.10
2022-09-16T17:34:26.967Z,15.10
2022-09-16T17:37:08.105Z,15.00
2022-09-16T17:39:37.600Z,14.90
2022-09-16T17:42:13.978Z,14.90
2022-09-16T17:44:48.383Z,14.80
2022-09-16T17:47:31.954Z,14.70
2022-09-16T17:50:06.987Z,14.70
2022-09-16T17:52:47.945Z,14.60
2022-09-16T17:55:25.316Z,14.60
2022-09-16T17:58:38.627Z,14.50
2022-09-16T18:01:25.757Z,14.50
2022-09-16T18:04:07.166Z,14.40
2022-09-16T18:07:05.345Z,14.50
2022-09-16T18:09:34.578Z,14.30
2022-09-16T18:12:02.464Z,14.20
2022-09-16T18:14:33.646Z,14.20
2022-09-16T18:17:11.692Z,14.10
2022-09-16T18:19:47.417Z,14.10
2022-09-16T18:22:16.247Z,14.10
2022-09-16T18:24:54.172Z,14.00
2022-09-16T18:27:22.091Z,14.00
2022-09-16T18:29:56.565Z,13.90
2022-09-16T18:32:37.282Z,13.90
2022-09-16T18:35:08.843Z,13.90
2022-09-16T18:37:48.214Z,13.80
2022-09-16T18:40:16.809Z,13.80
2022-09-16T18:42:48.284Z,13.70
2022-09-16T18:48:21.828Z,13.70
2022-09-16T18:51:10.363Z,13.70
2022-09-16T18:53:57.380Z,13.60
2022-09-16T18:56:35.622Z,13.60
2022-09-16T18:59:22.964Z,13.50
2022-09-16T19:02:04.331Z,13.70
2022-09-16T19:04:44.729Z,13.40
2022-09-16T19:07:24.945Z,13.30
2022-09-16T19:09:59.152Z,13.30
2022-09-16T19:13:01.564Z,13.30
2022-09-16T19:15:33.179Z,13.20
2022-09-16T19:18:01.534Z,13.20
2022-09-16T19:20:43.149Z,13.10
2022-09-16T19:23:48.944Z,13.10
2022-09-16T19:26:39.153Z,13.10
2022-09-16T19:29:07.955Z,13.00
2022-09-16T19:31:54.394Z,13.00
2022-09-16T19:37:21.140Z,12.90
2022-09-16T19:40:04.275Z,12.80
2022-09-16T19:42:36.555Z,12.70
2022-09-16T19:45:08.126Z,12.70
2022-09-16T19:47:48.985Z,12.60
2022-09-16T19:50:46.338Z,12.60
2022-09-16T19:53:23.179Z,12.50
2022-09-16T19:56:23.606Z,12.50
2022-09-16T19:58:55.664Z,12.90
2022-09-16T20:01:48.895Z,13.20
2022-09-16T20:04:42.179Z,12.30
2022-09-16T20:10:02.611Z,12.20
2022-09-16T20:15:23.507Z,12.20
2022-09-16T20:17:52.006Z,12.00
2022-09-16T20:20:21.610Z,12.00
2022-09-16T20:22:54.062Z,12.00
2022-09-16T20:25:38.925Z,12.00
2022-09-16T20:28:37.632Z,12.00
2022-09-16T20:31:31.129Z,12.00
2022-09-16T20:34:04.267Z,12.00
2022-09-16T20:36:41.052Z,11.50
2022-09-16T20:39:16.280Z,12.10
2022-09-16T20:41:50.107Z,12.20
2022-09-16T20:44:18.011Z,12.20
2022-09-16T20:47:02.977Z,12.10
2022-09-16T20:49:38.497Z,12.20
2022-09-16T20:52:06.924Z,12.10
2022-09-16T20:57:24.844Z,12.10
2022-09-16T21:00:12.020Z,12.00
2022-09-16T21:02:42.170Z,12.00
2022-09-16T21:05:19.630Z,12.00
2022-09-16T21:07:47.591Z,12.10
2022-09-16T21:10:19.862Z,12.00
2022-09-16T21:12:51.947Z,12.00
2022-09-16T21:15:22.884Z,12.00
2022-09-16T21:17:57.314Z,11.90
2022-09-16T21:20:32.710Z,11.90
2022-09-16T21:23:19.558Z,11.80
2022-09-16T21:25:48.877Z,11.80
2022-09-16T21:28:19.300Z,11.80
2022-09-16T21:31:02.865Z,11.80
2022-09-16T21:33:42.063Z,11.60
2022-09-16T21:36:21.352Z,11.70
2022-09-16T21:39:33.193Z,11.70
2022-09-16T21:42:05.560Z,11.60
2022-09-16T21:44:33.331Z,11.60
2022-09-16T21:47:02.974Z,11.60
2022-09-16T21:49:44.007Z,11.50
2022-09-16T21:52:34.476Z,11.40
2022-09-16T21:55:05.716Z,11.50
2022-09-16T21:57:42.651Z,11.40
2022-09-16T22:00:14.059Z,11.40
2022-09-16T22:02:41.911Z,11.40
2022-09-16T22:05:36.262Z,11.30
2022-09-16T22:08:09.931Z,11.30
2022-09-16T22:10:46.676Z,11.30
2022-09-16T22:13:27.955Z,11.30
2022-09-16T22:15:56.246Z,11.30
2022-09-16T22:18:32.157Z,11.20
2022-09-16T22:21:07.125Z,11.20
2022-09-16T22:23:37.438Z,11.20
2022-09-16T22:26:11.534Z,11.20
2022-09-16T22:28:40.315Z,11.10
2022-09-16T22:31:29.889Z,11.10
2022-09-16T22:34:04.810Z,11.10
2022-09-16T22:36:38.138Z,11.10
2022-09-16T22:39:15.896Z,11.10
2022-09-16T22:41:47.337Z,11.10
2022-09-16T22:44:18.089Z,11.10
2022-09-16T22:46:50.526Z,11.10
2022-09-16T22:49:22.594Z,11.10
2022-09-16T22:52:03.149Z,11.00
2022-09-16T22:54:32.157Z,11.00
2022-09-16T22:57:02.647Z,11.00
2022-09-16T22:59:32.341Z,11.00
2022-09-16T23:02:13.525Z,11.00
2022-09-16T23:04:44.394Z,10.90
2022-09-16T23:07:13.029Z,10.90
2022-09-16T23:09:47.253Z,10.90
2022-09-16T23:12:23.307Z,10.90
2022-09-16T23:14:51.077Z,11.60
2022-09-16T23:17:33.422Z,10.90
2022-09-16T23:20:03.023Z,10.80
2022-09-16T23:22:41.299Z,10.80
2022-09-16T23:25:09.267Z,10.70
2022-09-16T23:27:42.888Z,10.70
2022-09-16T23:30:11.930Z,10.70
2022-09-16T23:32:43.950Z,10.70
2022-09-16T23:35:25.152Z,10.60
2022-09-16T23:38:00.777Z,10.60
2022-09-16T23:40:31.075Z,10.60
2022-09-16T23:43:09.549Z,10.50
2022-09-16T23:45:41.365Z,10.50
2022-09-16T23:48:19.882Z,10.50
2022-09-16T23:50:49.999Z,10.50
2022-09-16T23:53:19.685Z,10.40
2022-09-16T23:55:48.922Z,10.40
2022-09-16T23:58:20.881Z,10.30
